Time;durP1;ratioP1;P1;durP2;ratioP2;P2;SDS_P1;SDS_P2;PMS_P1;PMS_P2;Temp;Humidity;BMP_temperature;BMP_pressure;BME280_temperature;BME280_humidity;BME280_pressure;Samples;Min_cycle;Max_cycle;Signal;HPM_P1;HPM_P2
2022/01/26 00:06:43;;;;;;;67.80;32.92;;;;;;;;;;4990153;28;20033;-69
2022/01/26 00:09:09;;;;;;;72.10;34.20;;;;;;;;;;4995142;28;20644;-69
2022/01/26 00:11:42;;;;;;;69.38;33.65;;;;;;;;;;4991249;28;20342;-70
2022/01/26 00:14:12;;;;;;;78.82;36.92;;;;;;;;;;4991067;28;20412;-70
2022/01/26 00:16:40;;;;;;;77.07;36.63;;;;;;;;;;4990787;28;20099;-69
2022/01/26 00:19:08;;;;;;;70.45;36.33;;;;;;;;;;4994061;28;20138;-69
2022/01/26 00:21:37;;;;;;;77.80;38.00;;;;;;;;;;4991562;28;20026;-70
2022/01/26 00:24:24;;;;;;;80.90;38.90;;;;;;;;;;4990115;28;20413;-69
2022/01/26 00:29:19;;;;;;;74.82;34.90;;;;;;;;;;4974601;28;20029;-70
2022/01/26 00:40:21;;;;;;;79.90;35.40;;;;;;;;;;4990488;28;20038;-69
2022/01/26 00:42:49;;;;;;;85.47;38.95;;;;;;;;;;4978754;28;20040;-70
2022/01/26 00:45:21;;;;;;;78.00;37.72;;;;;;;;;;4972092;28;20092;-70
2022/01/26 00:47:49;;;;;;;77.72;36.55;;;;;;;;;;4990196;28;20324;-70
2022/01/26 00:50:16;;;;;;;81.60;39.72;;;;;;;;;;4989094;28;20042;-70
2022/01/26 00:52:45;;;;;;;94.63;42.30;;;;;;;;;;4990347;28;20173;-68
2022/01/26 00:55:14;;;;;;;103.05;44.47;;;;;;;;;;4990285;28;20470;-69
2022/01/26 00:57:42;;;;;;;88.75;40.75;;;;;;;;;;4989965;28;20079;-69
2022/01/26 01:00:10;;;;;;;81.57;38.60;;;;;;;;;;4989297;28;20057;-69
2022/01/26 01:02:37;;;;;;;79.47;37.58;;;;;;;;;;4989703;28;20065;-69
2022/01/26 01:05:11;;;;;;;81.40;39.13;;;;;;;;;;4988019;28;20394;-69
2022/01/26 01:07:39;;;;;;;85.13;40.78;;;;;;;;;;4989632;28;20057;-70
2022/01/26 01:10:04;;;;;;;94.30;40.10;;;;;;;;;;4989520;28;20204;-71
2022/01/26 01:12:32;;;;;;;79.75;38.75;;;;;;;;;;4988853;28;20030;-69
2022/01/26 01:14:57;;;;;;;84.00;40.05;;;;;;;;;;4988936;28;20107;-71
2022/01/26 01:17:26;;;;;;;86.78;41.17;;;;;;;;;;4989544;28;20099;-69
2022/01/26 01:30:53;;;;;;;86.35;41.35;;;;;;;;;;4989049;28;20105;-70
2022/01/26 01:33:25;;;;;;;86.00;38.75;;;;;;;;;;4988555;28;20147;-69
2022/01/26 01:35:51;;;;;;;86.25;38.70;;;;;;;;;;4989202;28;20409;-70
2022/01/26 01:38:21;;;;;;;80.07;38.25;;;;;;;;;;4989283;28;20045;-69
2022/01/26 01:40:47;;;;;;;78.60;37.30;;;;;;;;;;4988781;28;22004;-69
2022/01/26 01:43:15;;;;;;;81.78;39.47;;;;;;;;;;4989257;28;20034;-71
2022/01/26 01:45:47;;;;;;;85.38;40.25;;;;;;;;;;4988355;28;20239;-70
2022/01/26 01:48:19;;;;;;;83.38;38.88;;;;;;;;;;4988656;28;20061;-69
2022/01/26 01:50:51;;;;;;;85.38;38.65;;;;;;;;;;4988459;28;20025;-69
2022/01/26 01:53:17;;;;;;;90.13;41.47;;;;;;;;;;4989700;28;20101;-71
2022/01/26 01:55:48;;;;;;;96.32;43.28;;;;;;;;;;4989024;28;20113;-70
2022/01/26 01:58:14;;;;;;;96.28;42.25;;;;;;;;;;4988736;28;20022;-70
2022/01/26 02:00:48;;;;;;;97.95;44.20;;;;;;;;;;4989069;28;20242;-70
2022/01/26 02:03:13;;;;;;;95.40;44.25;;;;;;;;;;4988616;28;20042;-70
2022/01/26 02:05:38;;;;;;;105.85;47.83;;;;;;;;;;4989833;28;20049;-70
2022/01/26 02:08:04;;;;;;;102.97;46.75;;;;;;;;;;4989652;28;20030;-69
2022/01/26 02:10:31;;;;;;;102.43;48.35;;;;;;;;;;4989804;28;20030;-70
2022/01/26 02:13:02;;;;;;;103.15;47.60;;;;;;;;;;4991834;28;20014;-69
2022/01/26 02:15:51;;;;;;;114.25;55.67;;;;;;;;;;4988865;28;20195;-69
2022/01/26 02:21:05;;;;;;;92.63;44.22;;;;;;;;;;4989065;28;20032;-69
2022/01/26 03:04:29;;;;;;;98.40;47.30;;;;;;;;;;4988184;28;20129;-69
2022/01/26 03:07:05;;;;;;;102.00;48.97;;;;;;;;;;4988405;28;20056;-70
2022/01/26 03:09:41;;;;;;;107.80;52.33;;;;;;;;;;4976712;28;20140;-69
2022/01/26 03:12:08;;;;;;;108.35;50.75;;;;;;;;;;4991249;28;20418;-70
2022/01/26 03:14:58;;;;;;;111.57;53.33;;;;;;;;;;4987115;28;20034;-68
2022/01/26 03:19:49;;;;;;;109.13;54.90;;;;;;;;;;4991383;28;20164;-69
2022/01/26 03:35:54;;;;;;;113.13;54.83;;;;;;;;;;4987933;28;20088;-70
2022/01/26 03:38:30;;;;;;;114.90;53.65;;;;;;;;;;4990779;28;20208;-70
2022/01/26 03:41:15;;;;;;;108.63;50.20;;;;;;;;;;4987582;28;20054;-70
2022/01/26 03:43:43;;;;;;;112.57;50.42;;;;;;;;;;4987038;28;21791;-69
2022/01/26 03:46:09;;;;;;;109.95;50.53;;;;;;;;;;4987803;28;20105;-70
2022/01/26 03:48:34;;;;;;;102.78;46.47;;;;;;;;;;4987554;28;20042;-69
2022/01/26 03:51:00;;;;;;;83.95;37.17;;;;;;;;;;4987126;28;20120;-69
2022/01/26 03:53:27;;;;;;;69.57;32.13;;;;;;;;;;4986881;28;20466;-71
2022/01/26 03:55:54;;;;;;;63.72;28.27;;;;;;;;;;4986852;28;20493;-69
2022/01/26 03:58:20;;;;;;;60.90;27.92;;;;;;;;;;4987494;28;20340;-70
2022/01/26 04:00:46;;;;;;;58.80;27.02;;;;;;;;;;4990582;28;20446;-69
2022/01/26 04:03:11;;;;;;;62.03;28.00;;;;;;;;;;4986192;28;20046;-70
2022/01/26 04:05:42;;;;;;;60.35;26.38;;;;;;;;;;4990722;28;20132;-70
2022/01/26 04:08:15;;;;;;;57.10;27.35;;;;;;;;;;4985723;28;20029;-70
2022/01/26 04:10:58;;;;;;;65.00;27.80;;;;;;;;;;4986769;28;20482;-69
2022/01/26 04:13:28;;;;;;;57.67;26.77;;;;;;;;;;4987351;28;20180;-70
2022/01/26 04:15:53;;;;;;;59.05;26.58;;;;;;;;;;4985980;28;20125;-70
2022/01/26 04:18:25;;;;;;;57.50;26.05;;;;;;;;;;4986716;28;20048;-70
2022/01/26 04:20:54;;;;;;;57.97;26.00;;;;;;;;;;4990806;28;20561;-71
2022/01/26 04:25:49;;;;;;;50.25;24.95;;;;;;;;;;4987131;28;20040;-71
2022/01/26 04:28:21;;;;;;;54.30;25.60;;;;;;;;;;4986267;28;20033;-69
2022/01/26 04:30:46;;;;;;;;;;;;;;;;;;4987803;28;20031;-70
2022/01/26 04:33:12;;;;;;;52.60;24.08;;;;;;;;;;4986543;28;20035;-69
2022/01/26 04:35:44;;;;;;;56.83;25.00;;;;;;;;;;4986948;28;20594;-69
2022/01/26 04:40:46;;;;;;;56.28;24.95;;;;;;;;;;4986084;28;20034;-71
2022/01/26 04:43:18;;;;;;;57.67;25.73;;;;;;;;;;4986457;28;20141;-68
2022/01/26 04:45:43;;;;;;;60.03;26.20;;;;;;;;;;4986759;28;20454;-69
2022/01/26 04:48:09;;;;;;;52.90;24.48;;;;;;;;;;4986689;28;20105;-69
2022/01/26 04:50:36;;;;;;;55.63;24.88;;;;;;;;;;4990424;28;20025;-70
2022/01/26 04:53:02;;;;;;;58.55;25.90;;;;;;;;;;4990435;28;20026;-70
2022/01/26 04:55:28;;;;;;;55.63;26.15;;;;;;;;;;4990057;28;20552;-70
2022/01/26 04:57:53;;;;;;;57.72;26.95;;;;;;;;;;4990137;28;20438;-69
2022/01/26 05:00:21;;;;;;;55.88;25.80;;;;;;;;;;4988744;28;20045;-70
2022/01/26 05:02:48;;;;;;;60.20;27.70;;;;;;;;;;4994044;28;20085;-69
2022/01/26 05:05:14;;;;;;;57.30;25.10;;;;;;;;;;4989675;28;20072;-69
2022/01/26 05:07:41;;;;;;;53.08;25.30;;;;;;;;;;4970537;28;20404;-68
2022/01/26 05:10:10;;;;;;;56.63;26.45;;;;;;;;;;4989402;28;20053;-70
2022/01/26 05:12:36;;;;;;;58.10;25.33;;;;;;;;;;4990378;28;20442;-69
2022/01/26 05:15:03;;;;;;;62.17;26.67;;;;;;;;;;4990008;28;20034;-69
2022/01/26 05:17:28;;;;;;;57.13;26.38;;;;;;;;;;4989911;28;20104;-69
2022/01/26 05:19:57;;;;;;;49.70;25.75;;;;;;;;;;4989509;28;20107;-70
2022/01/26 05:22:23;;;;;;;65.95;27.80;;;;;;;;;;4989486;28;20183;-70
2022/01/26 05:24:48;;;;;;;62.97;28.48;;;;;;;;;;4989571;28;20045;-70
2022/01/26 05:27:14;;;;;;;64.75;27.60;;;;;;;;;;4977835;28;20038;-69
2022/01/26 05:29:39;;;;;;;59.35;26.48;;;;;;;;;;4988223;28;20053;-70
2022/01/26 05:32:05;;;;;;;58.90;27.73;;;;;;;;;;4989314;28;20167;-70
2022/01/26 05:34:32;;;;;;;60.42;27.52;;;;;;;;;;4988947;28;20026;-70
2022/01/26 05:36:58;;;;;;;60.60;28.45;;;;;;;;;;4977580;28;20426;-69
2022/01/26 05:39:23;;;;;;;57.95;25.15;;;;;;;;;;4977373;28;20092;-70
2022/01/26 05:41:49;;;;;;;55.45;26.40;;;;;;;;;;4989350;28;20117;-69
2022/01/26 05:44:14;;;;;;;56.38;26.63;;;;;;;;;;4990365;28;20045;-70
2022/01/26 05:46:47;;;;;;;58.85;28.25;;;;;;;;;;4990551;28;20034;-70
2022/01/26 05:49:17;;;;;;;65.57;29.20;;;;;;;;;;4988632;28;20033;-69
2022/01/26 05:51:45;;;;;;;67.03;30.58;;;;;;;;;;4989200;28;20029;-70
2022/01/26 05:54:11;;;;;;;68.05;29.88;;;;;;;;;;4988622;28;20036;-70
2022/01/26 05:56:36;;;;;;;72.15;31.58;;;;;;;;;;4988908;28;20654;-70
2022/01/26 05:59:04;;;;;;;78.57;32.33;;;;;;;;;;4989308;28;20017;-69
2022/01/26 06:01:30;;;;;;;70.47;31.33;;;;;;;;;;4988336;28;20145;-69
2022/01/26 06:03:57;;;;;;;72.55;32.20;;;;;;;;;;4987512;28;20040;-70
2022/01/26 06:06:23;;;;;;;75.50;34.13;;;;;;;;;;4992584;28;20038;-69
2022/01/26 06:08:48;;;;;;;79.07;34.15;;;;;;;;;;4987087;28;20497;-69
2022/01/26 06:11:13;;;;;;;78.90;34.55;;;;;;;;;;4989202;28;20048;-70
2022/01/26 06:13:39;;;;;;;82.30;34.35;;;;;;;;;;4988789;28;20441;-70
2022/01/26 06:16:04;;;;;;;81.43;34.95;;;;;;;;;;4977147;28;20022;-70
2022/01/26 06:18:30;;;;;;;74.63;32.85;;;;;;;;;;4976597;28;20033;-70
2022/01/26 06:20:55;;;;;;;75.82;33.47;;;;;;;;;;4987868;28;20042;-70
2022/01/26 06:23:24;;;;;;;82.88;33.40;;;;;;;;;;4987482;28;20041;-69
2022/01/26 06:25:51;;;;;;;74.82;33.13;;;;;;;;;;4992172;28;20423;-69
2022/01/26 06:28:16;;;;;;;75.30;32.75;;;;;;;;;;4988034;28;20056;-70
2022/01/26 06:30:47;;;;;;;79.32;34.22;;;;;;;;;;4988905;28;21831;-69
2022/01/26 06:33:12;;;;;;;78.65;34.22;;;;;;;;;;4988119;28;20244;-69
2022/01/26 06:35:38;;;;;;;78.28;34.22;;;;;;;;;;4975270;28;20073;-69
2022/01/26 06:38:04;;;;;;;79.20;34.95;;;;;;;;;;4988269;28;20734;-68
2022/01/26 06:40:32;;;;;;;91.40;37.15;;;;;;;;;;4986770;28;20090;-70
2022/01/26 06:43:08;;;;;;;90.40;38.22;;;;;;;;;;4987726;28;20113;-69
2022/01/26 06:45:37;;;;;;;90.05;38.15;;;;;;;;;;4969605;28;20038;-69
2022/01/26 06:50:49;;;;;;;88.97;38.13;;;;;;;;;;4988602;28;20072;-69
2022/01/26 06:53:14;;;;;;;94.15;38.00;;;;;;;;;;4988040;28;20116;-69
2022/01/26 06:55:40;;;;;;;82.93;35.33;;;;;;;;;;4975453;28;20402;-69
2022/01/26 06:58:08;;;;;;;80.55;34.88;;;;;;;;;;4991978;28;20044;-69
2022/01/26 07:00:36;;;;;;;77.50;33.05;;;;;;;;;;4987367;28;20952;-70
2022/01/26 07:03:01;;;;;;;76.80;32.70;;;;;;;;;;4986484;28;20073;-69
2022/01/26 07:05:32;;;;;;;76.13;33.90;;;;;;;;;;4987637;28;20039;-70
2022/01/26 07:07:57;;;;;;;70.43;32.47;;;;;;;;;;4986416;28;20227;-69
2022/01/26 07:10:25;;;;;;;71.50;32.10;;;;;;;;;;4987641;28;20712;-72
2022/01/26 07:12:51;;;;;;;75.32;34.30;;;;;;;;;;4986915;28;20027;-70
2022/01/26 07:23:43;;;;;;;71.18;30.38;;;;;;;;;;4987821;28;20030;-69
2022/01/26 07:26:08;;;;;;;71.43;31.10;;;;;;;;;;4987128;28;20030;-69
2022/01/26 07:28:37;;;;;;;67.03;29.17;;;;;;;;;;4981823;28;20030;-69
2022/01/26 07:31:03;;;;;;;62.35;29.05;;;;;;;;;;4991493;28;20072;-69
2022/01/26 07:33:31;;;;;;;74.60;30.92;;;;;;;;;;4991090;28;20026;-70
2022/01/26 07:35:59;;;;;;;62.63;30.15;;;;;;;;;;4986852;28;20169;-69
2022/01/26 07:38:27;;;;;;;66.78;30.02;;;;;;;;;;4991271;28;20174;-70
2022/01/26 07:40:55;;;;;;;65.90;30.45;;;;;;;;;;4985877;28;20107;-69
2022/01/26 07:43:26;;;;;;;64.50;30.83;;;;;;;;;;5001362;28;20517;-70
2022/01/26 07:45:54;;;;;;;66.72;31.50;;;;;;;;;;4988042;28;20063;-70
2022/01/26 07:48:19;;;;;;;69.47;31.48;;;;;;;;;;4982226;28;20509;-69
2022/01/26 07:50:45;;;;;;;67.93;30.63;;;;;;;;;;4987638;28;20061;-69
2022/01/26 07:53:16;;;;;;;64.32;29.15;;;;;;;;;;4987276;28;20028;-69
2022/01/26 07:55:41;;;;;;;68.68;31.48;;;;;;;;;;4987120;28;20038;-70
2022/01/26 07:58:09;;;;;;;73.45;30.77;;;;;;;;;;4986418;28;20075;-70
2022/01/26 08:00:34;;;;;;;62.08;30.38;;;;;;;;;;4987207;28;20108;-70
2022/01/26 08:03:00;;;;;;;69.70;31.05;;;;;;;;;;4986211;28;20103;-70
2022/01/26 08:05:28;;;;;;;73.38;30.13;;;;;;;;;;4987122;28;20052;-69
2022/01/26 08:07:53;;;;;;;61.72;29.88;;;;;;;;;;5001346;28;20038;-71
2022/01/26 08:10:21;;;;;;;73.35;31.88;;;;;;;;;;4985688;28;20034;-70
2022/01/26 08:12:48;;;;;;;66.32;29.88;;;;;;;;;;4986535;28;20530;-70
2022/01/26 08:15:16;;;;;;;71.70;31.80;;;;;;;;;;4975347;28;20038;-71
2022/01/26 08:17:44;;;;;;;69.45;31.90;;;;;;;;;;4975024;28;20332;-68
2022/01/26 08:20:10;;;;;;;64.25;28.95;;;;;;;;;;4986144;28;20125;-70
2022/01/26 08:22:39;;;;;;;67.80;29.02;;;;;;;;;;4987230;28;20750;-69
2022/01/26 08:25:05;;;;;;;61.92;29.48;;;;;;;;;;4989409;28;20315;-68
2022/01/26 08:27:38;;;;;;;66.60;29.02;;;;;;;;;;4990445;28;20485;-69
2022/01/26 08:30:09;;;;;;;57.50;26.70;;;;;;;;;;4989787;28;20221;-70
2022/01/26 08:32:34;;;;;;;56.53;26.25;;;;;;;;;;4990357;28;20030;-70
2022/01/26 08:34:59;;;;;;;61.45;26.10;;;;;;;;;;4989452;28;20088;-71
2022/01/26 08:37:25;;;;;;;58.95;26.90;;;;;;;;;;4989710;28;20367;-68
2022/01/26 08:39:51;;;;;;;59.17;26.80;;;;;;;;;;4990077;28;20030;-69
2022/01/26 08:42:16;;;;;;;55.67;26.55;;;;;;;;;;5005231;28;20773;-70
2022/01/26 08:44:42;;;;;;;60.28;26.20;;;;;;;;;;4972940;28;20450;-69
2022/01/26 08:47:07;;;;;;;59.03;24.70;;;;;;;;;;4990273;28;20297;-69
2022/01/26 08:49:33;;;;;;;51.92;24.52;;;;;;;;;;4990069;28;20018;-70
2022/01/26 08:51:59;;;;;;;52.78;22.17;;;;;;;;;;4990048;28;20034;-69
2022/01/26 08:54:24;;;;;;;53.78;24.98;;;;;;;;;;4989584;28;20478;-69
2022/01/26 08:56:50;;;;;;;56.25;25.67;;;;;;;;;;4988129;28;20040;-69
2022/01/26 08:59:23;;;;;;;62.70;26.23;;;;;;;;;;4990083;28;20051;-69
2022/01/26 09:01:49;;;;;;;59.13;26.25;;;;;;;;;;4990151;28;20042;-69
2022/01/26 09:04:15;;;;;;;66.47;27.90;;;;;;;;;;5004648;28;20041;-69
2022/01/26 09:06:50;;;;;;;62.00;26.60;;;;;;;;;;4993859;28;20176;-70
2022/01/26 09:09:16;;;;;;;63.58;25.60;;;;;;;;;;4989832;28;20050;-69
2022/01/26 09:11:42;;;;;;;64.43;28.40;;;;;;;;;;4977616;28;20057;-70
2022/01/26 09:14:10;;;;;;;56.95;26.73;;;;;;;;;;4989617;28;20442;-69
2022/01/26 09:16:35;;;;;;;61.30;27.10;;;;;;;;;;4989755;28;20145;-69
2022/01/26 09:19:23;;;;;;;62.83;27.27;;;;;;;;;;4989471;28;20488;-69
2022/01/26 09:21:48;;;;;;;56.63;27.08;;;;;;;;;;4993741;28;20481;-69
2022/01/26 09:24:14;;;;;;;53.35;25.98;;;;;;;;;;4992919;28;20056;-70
2022/01/26 09:26:39;;;;;;;53.83;24.20;;;;;;;;;;4993286;28;20426;-70
2022/01/26 09:29:05;;;;;;;55.53;25.13;;;;;;;;;;4993020;28;20116;-70
2022/01/26 09:31:31;;;;;;;52.90;24.77;;;;;;;;;;4989276;28;20234;-69
2022/01/26 09:33:56;;;;;;;56.10;24.55;;;;;;;;;;4989133;28;20030;-70
2022/01/26 09:36:22;;;;;;;57.72;24.48;;;;;;;;;;4976347;28;20619;-69
2022/01/26 09:38:48;;;;;;;49.22;23.75;;;;;;;;;;4989364;28;20044;-70
2022/01/26 09:41:16;;;;;;;48.97;23.63;;;;;;;;;;4960804;28;20041;-69
2022/01/26 09:43:43;;;;;;;53.55;25.08;;;;;;;;;;4989368;28;20116;-67
2022/01/26 09:46:14;;;;;;;49.20;23.92;;;;;;;;;;4988723;28;20504;-71
2022/01/26 09:48:43;;;;;;;49.27;23.07;;;;;;;;;;4992608;28;20060;-70
2022/01/26 09:51:12;;;;;;;42.85;21.65;;;;;;;;;;4988650;28;20045;-70
2022/01/26 09:53:38;;;;;;;47.13;21.63;;;;;;;;;;4988993;28;20065;-69
2022/01/26 09:56:03;;;;;;;43.97;22.52;;;;;;;;;;4987371;28;20157;-69
2022/01/26 09:58:29;;;;;;;45.47;22.45;;;;;;;;;;4971447;28;20033;-69
2022/01/26 10:01:01;;;;;;;48.03;23.42;;;;;;;;;;4987346;28;20031;-69
2022/01/26 10:03:31;;;;;;;45.38;23.08;;;;;;;;;;4988562;28;20152;-69
2022/01/26 10:05:57;;;;;;;44.47;23.00;;;;;;;;;;4988867;28;20728;-69
2022/01/26 10:18:58;;;;;;;48.35;23.92;;;;;;;;;;4988395;28;20037;-70
2022/01/26 10:21:24;;;;;;;44.63;23.40;;;;;;;;;;4992838;28;20022;-70
2022/01/26 10:23:52;;;;;;;46.13;23.05;;;;;;;;;;4988297;28;20071;-71
2022/01/26 10:26:19;;;;;;;45.38;22.65;;;;;;;;;;4987435;28;20036;-69
2022/01/26 10:28:44;;;;;;;49.50;23.58;;;;;;;;;;4991705;28;20304;-70
2022/01/26 10:31:13;;;;;;;51.47;24.30;;;;;;;;;;4988519;28;20171;-69
2022/01/26 10:33:38;;;;;;;50.22;23.60;;;;;;;;;;4987191;28;20512;-68
2022/01/26 10:36:04;;;;;;;49.53;24.15;;;;;;;;;;4988056;28;20053;-69
2022/01/26 10:38:30;;;;;;;46.03;24.52;;;;;;;;;;4988636;28;20029;-70
2022/01/26 10:40:55;;;;;;;46.85;24.00;;;;;;;;;;4992456;28;20274;-69
2022/01/26 10:43:21;;;;;;;49.45;23.02;;;;;;;;;;4987661;28;20038;-69
2022/01/26 10:45:58;;;;;;;44.03;21.15;;;;;;;;;;4987691;28;20099;-69
2022/01/26 10:48:29;;;;;;;47.67;23.67;;;;;;;;;;4990923;28;20682;-69
2022/01/26 10:53:44;;;;;;;43.33;19.98;;;;;;;;;;4987292;28;20103;-69
2022/01/26 10:56:11;;;;;;;36.05;20.50;;;;;;;;;;4987253;28;20034;-69
2022/01/26 10:58:37;;;;;;;38.90;19.75;;;;;;;;;;4987445;28;20084;-69
2022/01/26 11:01:04;;;;;;;35.38;19.45;;;;;;;;;;4987387;28;20246;-69
2022/01/26 11:03:33;;;;;;;38.28;18.23;;;;;;;;;;4987151;28;20038;-70
2022/01/26 11:05:59;;;;;;;40.08;18.88;;;;;;;;;;4987341;28;20129;-69
2022/01/26 11:08:25;;;;;;;39.05;19.55;;;;;;;;;;4987048;28;22010;-70
2022/01/26 11:10:53;;;;;;;40.75;19.88;;;;;;;;;;4987823;28;20040;-69
2022/01/26 11:13:28;;;;;;;44.65;20.55;;;;;;;;;;4991247;28;20034;-69
2022/01/26 11:16:05;;;;;;;37.22;19.10;;;;;;;;;;4986475;28;20029;-69
2022/01/26 11:18:33;;;;;;;43.65;20.38;;;;;;;;;;4986369;28;20030;-70
2022/01/26 11:20:58;;;;;;;44.28;20.80;;;;;;;;;;4987254;28;20812;-70
2022/01/26 11:23:42;;;;;;;42.95;20.38;;;;;;;;;;4987236;28;20121;-70
2022/01/26 11:26:23;;;;;;;41.00;19.70;;;;;;;;;;4990957;28;20361;-68
2022/01/26 11:28:48;;;;;;;45.30;20.85;;;;;;;;;;4975148;28;20038;-68
2022/01/26 11:31:17;;;;;;;52.20;21.35;;;;;;;;;;4986654;28;20459;-68
2022/01/26 11:33:43;;;;;;;46.53;21.30;;;;;;;;;;4986400;28;20034;-69
2022/01/26 11:36:08;;;;;;;47.70;21.60;;;;;;;;;;4974619;28;20057;-69
2022/01/26 11:47:00;;;;;;;46.58;20.83;;;;;;;;;;4986775;28;20144;-69
2022/01/26 11:49:43;;;;;;;45.58;21.83;;;;;;;;;;4986134;28;20030;-68
2022/01/26 11:52:21;;;;;;;45.33;20.73;;;;;;;;;;4986431;28;21952;-68
2022/01/26 11:54:53;;;;;;;46.97;21.60;;;;;;;;;;4986487;28;20050;-69
2022/01/26 11:57:35;;;;;;;42.35;22.08;;;;;;;;;;4982333;28;20496;-68
2022/01/26 12:00:04;;;;;;;45.10;22.02;;;;;;;;;;4992972;28;20030;-68
2022/01/26 12:02:52;;;;;;;43.53;21.40;;;;;;;;;;4978863;28;20064;-69
2022/01/26 12:05:21;;;;;;;38.15;19.23;;;;;;;;;;4990256;28;20266;-69
2022/01/26 12:07:52;;;;;;;41.85;19.08;;;;;;;;;;4991409;28;20052;-69
2022/01/26 12:10:24;;;;;;;43.00;19.15;;;;;;;;;;4991078;28;20479;-69
2022/01/26 12:13:03;;;;;;;41.97;19.60;;;;;;;;;;4989326;28;20037;-69
2022/01/26 12:15:42;;;;;;;41.28;19.83;;;;;;;;;;4994767;28;20085;-69
2022/01/26 12:39:14;;;;;;;30.80;16.25;;;;;;;;;;4990199;28;20031;-68
2022/01/26 12:41:52;;;;;;;36.22;18.50;;;;;;;;;;4990533;28;20056;-70
2022/01/26 12:44:17;;;;;;;41.70;17.88;;;;;;;;;;4989716;28;20317;-69
2022/01/26 12:46:43;;;;;;;37.28;18.60;;;;;;;;;;4990566;28;20044;-69
2022/01/26 12:49:14;;;;;;;38.78;18.85;;;;;;;;;;4989250;28;20421;-69
2022/01/26 12:51:51;;;;;;;45.13;18.65;;;;;;;;;;4990111;28;20125;-69
2022/01/26 12:54:17;;;;;;;41.60;18.50;;;;;;;;;;4989650;28;20022;-68
2022/01/26 12:56:42;;;;;;;42.38;18.33;;;;;;;;;;4990805;28;20038;-69
2022/01/26 12:59:09;;;;;;;40.47;18.38;;;;;;;;;;4989945;28;20030;-69
2022/01/26 13:01:38;;;;;;;38.78;17.08;;;;;;;;;;4990558;28;21874;-69
2022/01/26 13:04:04;;;;;;;44.75;18.10;;;;;;;;;;4977216;28;20121;-69
2022/01/26 13:06:39;;;;;;;43.80;17.77;;;;;;;;;;4989034;28;20498;-69
2022/01/26 13:09:15;;;;;;;38.35;17.35;;;;;;;;;;4989448;28;20034;-69
2022/01/26 13:11:41;;;;;;;33.20;15.52;;;;;;;;;;5002978;28;21799;-70
2022/01/26 13:14:13;;;;;;;31.27;15.43;;;;;;;;;;4988531;28;20500;-70
2022/01/26 13:16:41;;;;;;;34.90;15.60;;;;;;;;;;4989251;28;21898;-68
2022/01/26 13:24:14;;;;;;;33.42;13.93;;;;;;;;;;4989726;28;20037;-67
2022/01/26 13:26:51;;;;;;;36.65;15.05;;;;;;;;;;4993650;28;20034;-69
2022/01/26 13:29:37;;;;;;;37.28;14.00;;;;;;;;;;4989005;28;20066;-69
2022/01/26 13:32:28;;;;;;;33.97;14.57;;;;;;;;;;4989279;28;20058;-69
2022/01/26 13:35:14;;;;;;;34.20;13.43;;;;;;;;;;4992615;28;20085;-68
2022/01/26 13:38:05;;;;;;;32.38;14.93;;;;;;;;;;4988699;28;20097;-68
2022/01/26 13:40:46;;;;;;;38.47;15.48;;;;;;;;;;4989723;28;20224;-68
2022/01/26 13:48:56;;;;;;;33.72;15.25;;;;;;;;;;4988567;28;20030;-68
2022/01/26 13:51:34;;;;;;;39.05;15.88;;;;;;;;;;4991299;28;20042;-69
2022/01/26 14:01:42;;;;;;;42.55;16.73;;;;;;;;;;4989608;28;20083;-68
2022/01/26 14:04:07;;;;;;;40.25;17.17;;;;;;;;;;4991718;28;20390;-69
2022/01/26 14:06:33;;;;;;;40.80;17.23;;;;;;;;;;4989354;28;20034;-69
2022/01/26 14:09:02;;;;;;;40.00;16.10;;;;;;;;;;4993030;28;20044;-69
2022/01/26 14:11:27;;;;;;;40.53;16.42;;;;;;;;;;4988577;28;20109;-69
2022/01/26 14:13:56;;;;;;;37.75;16.23;;;;;;;;;;4987197;28;20034;-71
2022/01/26 14:16:22;;;;;;;53.60;18.10;;;;;;;;;;4987808;28;20572;-69
2022/01/26 14:19:13;;;;;;;44.03;18.92;;;;;;;;;;4988730;28;20057;-69
2022/01/26 14:26:46;;;;;;;44.83;18.50;;;;;;;;;;4988298;28;20732;-69
2022/01/26 14:29:38;;;;;;;44.67;19.05;;;;;;;;;;4988203;28;20044;-68
2022/01/26 15:11:59;;;;;;;49.75;18.65;;;;;;;;;;5002123;28;20057;-68
2022/01/26 15:35:22;;;;;;;51.67;17.30;;;;;;;;;;4986783;28;20075;-69
2022/01/26 15:49:04;;;;;;;51.33;17.52;;;;;;;;;;4986408;28;20103;-69
2022/01/26 16:07:20;;;;;;;54.17;17.17;;;;;;;;;;4986256;28;20531;-69
2022/01/26 16:12:44;;;;;;;47.67;16.50;;;;;;;;;;4986696;28;20140;-68
2022/01/26 16:21:17;;;;;;;47.13;16.60;;;;;;;;;;4986653;28;20037;-69
2022/01/26 16:53:19;;;;;;;40.85;16.23;;;;;;;;;;4990787;28;20416;-69
2022/01/26 17:12:24;;;;;;;40.63;15.18;;;;;;;;;;4989785;28;20038;-69
2022/01/26 18:04:41;;;;;;;33.08;10.15;;;;;;;;;;4988945;28;22278;-69
2022/01/26 18:39:23;;;;;;;41.58;15.43;;;;;;;;;;4988161;28;20091;-68
2022/01/26 18:50:18;;;;;;;51.30;15.35;;;;;;;;;;4988948;28;20087;-69
2022/01/26 18:52:46;;;;;;;51.30;15.10;;;;;;;;;;4987616;28;20109;-69
2022/01/26 18:55:14;;;;;;;46.95;14.93;;;;;;;;;;4987761;28;20029;-68
2022/01/26 18:57:39;;;;;;;55.90;15.13;;;;;;;;;;4986569;28;20112;-68
2022/01/26 19:00:05;;;;;;;52.60;15.05;;;;;;;;;;4987831;28;20044;-68
2022/01/26 19:02:31;;;;;;;53.15;15.45;;;;;;;;;;4987936;28;20036;-69
2022/01/26 19:04:56;;;;;;;48.08;13.55;;;;;;;;;;4987595;28;20022;-70
2022/01/26 19:07:21;;;;;;;56.35;13.82;;;;;;;;;;4987404;28;20029;-69
2022/01/26 19:09:50;;;;;;;41.25;12.93;;;;;;;;;;4985588;28;20026;-68
2022/01/26 19:12:17;;;;;;;41.17;11.73;;;;;;;;;;4987836;28;20359;-69
2022/01/26 19:14:48;;;;;;;46.65;12.43;;;;;;;;;;4987780;28;20485;-68
2022/01/26 19:19:57;;;;;;;42.15;11.20;;;;;;;;;;4986839;28;20558;-69
2022/01/26 19:32:50;;;;;;;46.47;10.82;;;;;;;;;;4987138;28;20029;-68
2022/01/26 19:46:26;;;;;;;;;;;;;;;;;;5002888;28;20240;-68
2022/01/26 19:51:49;;;;;;;28.73;6.53;;;;;;;;;;4984981;28;20046;-69
2022/01/26 19:54:16;;;;;;;25.88;6.93;;;;;;;;;;4988612;28;20544;-69
2022/01/26 19:56:41;;;;;;;25.63;6.00;;;;;;;;;;4987624;28;20539;-69
2022/01/26 19:59:09;;;;;;;26.60;6.43;;;;;;;;;;4988007;28;21791;-68
2022/01/26 20:01:34;;;;;;;29.02;7.07;;;;;;;;;;4987120;28;20028;-71
2022/01/26 20:04:00;;;;;;;29.08;5.97;;;;;;;;;;4986819;28;20477;-70
2022/01/26 20:06:26;;;;;;;34.60;6.47;;;;;;;;;;4986776;28;20169;-70
2022/01/26 20:11:56;;;;;;;35.83;7.68;;;;;;;;;;4965013;28;20578;-69
2022/01/26 20:14:26;;;;;;;25.60;6.47;;;;;;;;;;4990824;28;20671;-69
2022/01/26 20:16:51;;;;;;;34.80;7.68;;;;;;;;;;4986405;28;20255;-69
2022/01/26 20:19:18;;;;;;;29.42;6.68;;;;;;;;;;4986951;28;20699;-69
2022/01/26 20:21:44;;;;;;;25.60;6.22;;;;;;;;;;4994102;28;20444;-72
2022/01/26 20:24:09;;;;;;;21.58;6.18;;;;;;;;;;5005641;28;20130;-68
2022/01/26 20:26:35;;;;;;;29.02;6.35;;;;;;;;;;4978842;28;20607;-72
2022/01/26 20:29:00;;;;;;;27.10;6.70;;;;;;;;;;4994959;28;20112;-69
2022/01/26 20:31:26;;;;;;;23.35;6.22;;;;;;;;;;4991308;28;20167;-69
2022/01/26 20:33:54;;;;;;;22.65;6.40;;;;;;;;;;4990511;28;20030;-69
2022/01/26 20:36:23;;;;;;;33.88;7.20;;;;;;;;;;4990478;28;20527;-69
2022/01/26 20:38:49;;;;;;;23.98;7.15;;;;;;;;;;4990827;28;20268;-68
2022/01/26 20:41:14;;;;;;;25.60;6.57;;;;;;;;;;4977859;28;20425;-69
2022/01/26 20:43:40;;;;;;;27.38;7.15;;;;;;;;;;4990512;28;20500;-70
2022/01/26 20:46:07;;;;;;;40.78;8.40;;;;;;;;;;4991160;28;20033;-69
2022/01/26 20:48:32;;;;;;;26.10;8.77;;;;;;;;;;4978230;28;20037;-68
2022/01/26 20:50:58;;;;;;;28.38;8.85;;;;;;;;;;4990176;28;20046;-69
2022/01/26 20:53:24;;;;;;;35.05;10.05;;;;;;;;;;4990425;28;20049;-70
2022/01/26 20:55:49;;;;;;;39.38;10.98;;;;;;;;;;4989870;28;20441;-68
2022/01/26 20:58:14;;;;;;;31.77;10.15;;;;;;;;;;5005506;28;20279;-69
2022/01/26 21:00:40;;;;;;;34.60;10.43;;;;;;;;;;4989587;28;20103;-69
2022/01/26 21:03:09;;;;;;;33.03;10.13;;;;;;;;;;4989654;28;20088;-69
2022/01/26 21:05:35;;;;;;;29.50;10.30;;;;;;;;;;4989560;28;20382;-69
2022/01/26 21:08:00;;;;;;;26.15;10.20;;;;;;;;;;4990176;28;21833;-69
2022/01/26 21:10:26;;;;;;;35.70;11.07;;;;;;;;;;4989411;28;20065;-69
2022/01/26 21:12:51;;;;;;;41.67;11.38;;;;;;;;;;4990556;28;20038;-71
2022/01/26 21:15:17;;;;;;;40.60;11.45;;;;;;;;;;4989147;28;20029;-71
2022/01/26 21:17:48;;;;;;;39.75;12.48;;;;;;;;;;4990619;28;20108;-69
2022/01/26 21:20:15;;;;;;;36.25;12.93;;;;;;;;;;4993711;28;20137;-68
2022/01/26 21:22:41;;;;;;;38.78;12.55;;;;;;;;;;4989239;28;22162;-69
2022/01/26 21:25:07;;;;;;;39.00;12.40;;;;;;;;;;4990101;28;20029;-69
2022/01/26 21:27:32;;;;;;;32.67;11.70;;;;;;;;;;5004688;28;20053;-70
2022/01/26 21:29:58;;;;;;;38.22;13.05;;;;;;;;;;4989812;28;20085;-70
2022/01/26 21:32:27;;;;;;;39.55;12.88;;;;;;;;;;4989042;28;20037;-69
2022/01/26 21:34:53;;;;;;;36.03;13.30;;;;;;;;;;4989353;28;20072;-69
2022/01/26 21:37:18;;;;;;;34.78;14.70;;;;;;;;;;4989435;28;20054;-69
2022/01/26 21:39:44;;;;;;;36.83;13.07;;;;;;;;;;4988580;28;20064;-68